PWSweather.com
Personal Weather Stations
Station Observations
KIDNAMPA57
Canyon County Idaho, Nampa, ID 83687

Canyon County IdahoNampa, ID 83687

Lat: 43.587235, Lon: -116.49831979999999

Elevation: 2615

Station Type: Davis Vantage Pro 2

www.rockinglweather.com

High Low Average
Temperature 42.3°F5.7°C 24.9°F-3.9°C 33.2°F0.7°C
Dew Point 32.1°F0.1°C 22.7°F-5.2°C 28.1°F-2.2°C
Winds 17.0 mph 27.4 kmh Calm Calm 4.0 mph ESE6.4 kmh ESE
Wind Gusts 19.0 mph30.6 kmh -- 8.0 mph12.9 kmh
Humidity 92% 63% 82%
Pressure 30.33 in1027.1 mb 30.22 in1023.4 mb -
Precipitation 0.00 in0.0 mm - -
Hour Temp Dew Point Humidity Winds Wind Gusts Pressure Precip Precip Rate Daily Precip Total
12:00 AM 35.2°F1.8°C 30.6°F-0.8°C 83% 13.0 mph SSE20.9 kmh SSE 13.0 mph20.9 kmh 30.24 in1024.0 mb 0.00 in0.0 mm 0.00 in0.0 mm 0.00 in0.0 mm
12:05 AM 35.1°F1.7°C 30.5°F-0.8°C 83% 6.0 mph SSE9.7 kmh SSE 15.0 mph24.1 kmh 30.24 in1024.0 mb 0.00 in0.0 mm 0.00 in0.0 mm 0.00 in0.0 mm
12:10 AM 35.0°F1.7°C 30.4°F-0.9°C 83% 9.0 mph SE14.5 kmh SE 15.0 mph24.1 kmh 30.24 in1024.0 mb 0.00 in0.0 mm 0.00 in0.0 mm 0.00 in0.0 mm
12:15 AM 34.9°F1.6°C 30.3°F-0.9°C 83% 7.0 mph SE11.3 kmh SE 15.0 mph24.1 kmh 30.24 in1024.0 mb 0.00 in0.0 mm 0.00 in0.0 mm 0.00 in0.0 mm
12:20 AM 34.9°F1.6°C 30.3°F-0.9°C 83% 8.0 mph SSE12.9 kmh SSE 11.0 mph17.7 kmh 30.24 in1024.0 mb 0.00 in0.0 mm 0.00 in0.0 mm 0.00 in0.0 mm
12:25 AM 34.9°F1.6°C 30.3°F-0.9°C 83% 3.0 mph SSE4.8 kmh SSE 13.0 mph20.9 kmh 30.24 in1024.0 mb 0.00 in0.0 mm 0.00 in0.0 mm 0.00 in0.0 mm
12:30 AM 35.0°F1.7°C 30.4°F-0.9°C 83% 11.0 mph SSE17.7 kmh SSE 13.0 mph20.9 kmh 30.24 in1024.0 mb 0.00 in0.0 mm 0.00 in0.0 mm 0.00 in0.0 mm
12:35 AM 35.0°F1.7°C 30.4°F-0.9°C 83% 8.0 mph SSE12.9 kmh SSE 15.0 mph24.1 kmh 30.24 in1024.0 mb 0.00 in0.0 mm 0.00 in0.0 mm 0.00 in0.0 mm
12:40 AM 35.0°F1.7°C 30.4°F-0.9°C 83% 8.0 mph SE12.9 kmh SE 15.0 mph24.1 kmh 30.24 in1024.0 mb 0.00 in0.0 mm 0.00 in0.0 mm 0.00 in0.0 mm
12:45 AM 34.9°F1.6°C 30.3°F-0.9°C 83% 6.0 mph S9.7 kmh S 15.0 mph24.1 kmh 30.24 in1024.0 mb 0.00 in0.0 mm 0.00 in0.0 mm 0.00 in0.0 mm
12:50 AM 34.8°F1.6°C 30.2°F-1.0°C 83% 7.0 mph S11.3 kmh S 14.0 mph22.5 kmh 30.24 in1024.0 mb 0.00 in0.0 mm 0.00 in0.0 mm 0.00 in0.0 mm
12:55 AM 34.7°F1.5°C 30.1°F-1.1°C 83% 6.0 mph SE9.7 kmh SE 14.0 mph22.5 kmh 30.24 in1024.0 mb 0.00 in0.0 mm 0.00 in0.0 mm 0.00 in0.0 mm
01:00 AM 34.5°F1.4°C 29.9°F-1.2°C 83% 8.0 mph SE12.9 kmh SE 14.0 mph22.5 kmh 30.24 in1024.0 mb 0.00 in0.0 mm 0.00 in0.0 mm 0.00 in0.0 mm
01:05 AM 34.3°F1.3°C 30.0°F-1.1°C 84% 10.0 mph SE16.1 kmh SE 12.0 mph19.3 kmh 30.23 in1023.7 mb 0.00 in0.0 mm 0.00 in0.0 mm 0.00 in0.0 mm
01:10 AM 34.2°F1.2°C 29.9°F-1.2°C 84% 11.0 mph SSE17.7 kmh SSE 12.0 mph19.3 kmh 30.23 in1023.7 mb 0.00 in0.0 mm 0.00 in0.0 mm 0.00 in0.0 mm
01:15 AM 34.1°F1.2°C 29.8°F-1.2°C 84% 5.0 mph S8.0 kmh S 12.0 mph19.3 kmh 30.23 in1023.7 mb 0.00 in0.0 mm 0.00 in0.0 mm 0.00 in0.0 mm
01:20 AM 34.0°F1.1°C 29.7°F-1.3°C 84% 7.0 mph SE11.3 kmh SE 8.0 mph12.9 kmh 30.23 in1023.7 mb 0.00 in0.0 mm 0.00 in0.0 mm 0.00 in0.0 mm
01:25 AM 33.8°F1.0°C 29.5°F-1.4°C 84% 7.0 mph S11.3 kmh S 9.0 mph14.5 kmh 30.23 in1023.7 mb 0.00 in0.0 mm 0.00 in0.0 mm 0.00 in0.0 mm
01:30 AM 33.6°F0.9°C 29.6°F-1.3°C 85% 4.0 mph SE6.4 kmh SE 9.0 mph14.5 kmh 30.23 in1023.7 mb 0.00 in0.0 mm 0.00 in0.0 mm 0.00 in0.0 mm
01:35 AM 33.4°F0.8°C 29.4°F-1.4°C 85% 6.0 mph SSE9.7 kmh SSE 8.0 mph12.9 kmh 30.23 in1023.7 mb 0.00 in0.0 mm 0.00 in0.0 mm 0.00 in0.0 mm
01:40 AM 33.1°F0.6°C 29.1°F-1.6°C 85% 3.0 mph S4.8 kmh S 8.0 mph12.9 kmh 30.23 in1023.7 mb 0.00 in0.0 mm 0.00 in0.0 mm 0.00 in0.0 mm
01:45 AM 32.8°F0.4°C 28.8°F-1.8°C 85% 5.0 mph SE8.0 kmh SE 8.0 mph12.9 kmh 30.23 in1023.7 mb 0.00 in0.0 mm 0.00 in0.0 mm 0.00 in0.0 mm
01:50 AM 32.5°F0.3°C 28.5°F-1.9°C 85% 7.0 mph SE11.3 kmh SE 9.0 mph14.5 kmh 30.23 in1023.7 mb 0.00 in0.0 mm 0.00 in0.0 mm 0.00 in0.0 mm
01:55 AM 32.2°F0.1°C 28.5°F-1.9°C 86% 4.0 mph SE6.4 kmh SE 9.0 mph14.5 kmh 30.23 in1023.7 mb 0.00 in0.0 mm 0.00 in0.0 mm 0.00 in0.0 mm
02:00 AM 32.1°F0.1°C 28.4°F-2.0°C 86% 4.0 mph SE6.4 kmh SE 9.0 mph14.5 kmh 30.23 in1023.7 mb 0.00 in0.0 mm 0.00 in0.0 mm 0.00 in0.0 mm
02:10 AM 31.7°F-0.2°C 28.0°F-2.2°C 86% 4.0 mph ESE6.4 kmh ESE 8.0 mph12.9 kmh 30.23 in1023.7 mb 0.00 in0.0 mm 0.00 in0.0 mm 0.00 in0.0 mm
02:15 AM 31.6°F-0.2°C 28.2°F-2.1°C 87% 5.0 mph SE8.0 kmh SE 9.0 mph14.5 kmh 30.23 in1023.7 mb 0.00 in0.0 mm 0.00 in0.0 mm 0.00 in0.0 mm
02:20 AM 31.6°F-0.2°C 28.2°F-2.1°C 87% 5.0 mph ESE8.0 kmh ESE 9.0 mph14.5 kmh 30.23 in1023.7 mb 0.00 in0.0 mm 0.00 in0.0 mm 0.00 in0.0 mm
02:25 AM 31.6°F-0.2°C 28.2°F-2.1°C 87% 4.0 mph ESE6.4 kmh ESE 9.0 mph14.5 kmh 30.23 in1023.7 mb 0.00 in0.0 mm 0.00 in0.0 mm 0.00 in0.0 mm
02:30 AM 31.6°F-0.2°C 28.2°F-2.1°C 87% 6.0 mph E9.7 kmh E 10.0 mph16.1 kmh 30.23 in1023.7 mb 0.00 in0.0 mm 0.00 in0.0 mm 0.00 in0.0 mm
02:35 AM 31.6°F-0.2°C 28.2°F-2.1°C 87% 4.0 mph SE6.4 kmh SE 10.0 mph16.1 kmh 30.23 in1023.7 mb 0.00 in0.0 mm 0.00 in0.0 mm 0.00 in0.0 mm
02:40 AM 31.6°F-0.2°C 28.2°F-2.1°C 87% 7.0 mph SE11.3 kmh SE 10.0 mph16.1 kmh 30.23 in1023.7 mb 0.00 in0.0 mm 0.00 in0.0 mm 0.00 in0.0 mm
02:45 AM 31.6°F-0.2°C 28.2°F-2.1°C 87% 3.0 mph SE4.8 kmh SE 10.0 mph16.1 kmh 30.23 in1023.7 mb 0.00 in0.0 mm 0.00 in0.0 mm 0.00 in0.0 mm
02:50 AM 31.7°F-0.2°C 28.3°F-2.1°C 87% 1.0 mph ESE1.6 kmh ESE 9.0 mph14.5 kmh 30.23 in1023.7 mb 0.00 in0.0 mm 0.00 in0.0 mm 0.00 in0.0 mm
02:55 AM 31.7°F-0.2°C 28.3°F-2.1°C 87% 2.0 mph ESE3.2 kmh ESE 9.0 mph14.5 kmh 30.24 in1024.0 mb 0.00 in0.0 mm 0.00 in0.0 mm 0.00 in0.0 mm
03:00 AM 31.6°F-0.2°C 28.2°F-2.1°C 87% 4.0 mph E6.4 kmh E 9.0 mph14.5 kmh 30.24 in1024.0 mb 0.00 in0.0 mm 0.00 in0.0 mm 0.00 in0.0 mm
03:05 AM 31.5°F-0.3°C 28.1°F-2.2°C 87% 3.0 mph E4.8 kmh E 7.0 mph11.3 kmh 30.24 in1024.0 mb 0.00 in0.0 mm 0.00 in0.0 mm 0.00 in0.0 mm
03:10 AM 31.4°F-0.3°C 28.0°F-2.2°C 87% 2.0 mph E3.2 kmh E 7.0 mph11.3 kmh 30.24 in1024.0 mb 0.00 in0.0 mm 0.00 in0.0 mm 0.00 in0.0 mm
03:15 AM 31.2°F-0.4°C 27.8°F-2.3°C 87% 3.0 mph ESE4.8 kmh ESE 7.0 mph11.3 kmh 30.24 in1024.0 mb 0.00 in0.0 mm 0.00 in0.0 mm 0.00 in0.0 mm
03:20 AM 31.0°F-0.6°C 27.6°F-2.4°C 87% 4.0 mph E6.4 kmh E 5.0 mph8.0 kmh 30.24 in1024.0 mb 0.00 in0.0 mm 0.00 in0.0 mm 0.00 in0.0 mm
03:25 AM 30.8°F-0.7°C 27.4°F-2.6°C 87% 3.0 mph E4.8 kmh E 7.0 mph11.3 kmh 30.24 in1024.0 mb 0.00 in0.0 mm 0.00 in0.0 mm 0.00 in0.0 mm
03:30 AM 30.4°F-0.9°C 27.0°F-2.8°C 87% 3.0 mph E4.8 kmh E 7.0 mph11.3 kmh 30.24 in1024.0 mb 0.00 in0.0 mm 0.00 in0.0 mm 0.00 in0.0 mm
03:35 AM 30.1°F-1.1°C 27.0°F-2.8°C 88% 4.0 mph E6.4 kmh E 5.0 mph8.0 kmh 30.25 in1024.4 mb 0.00 in0.0 mm 0.00 in0.0 mm 0.00 in0.0 mm
03:40 AM 30.0°F-1.1°C 26.9°F-2.8°C 88% 2.0 mph E3.2 kmh E 5.0 mph8.0 kmh 30.25 in1024.4 mb 0.00 in0.0 mm 0.00 in0.0 mm 0.00 in0.0 mm
03:45 AM 29.9°F-1.2°C 26.8°F-2.9°C 88% 4.0 mph E6.4 kmh E 5.0 mph8.0 kmh 30.25 in1024.4 mb 0.00 in0.0 mm 0.00 in0.0 mm 0.00 in0.0 mm
03:50 AM 29.9°F-1.2°C 26.8°F-2.9°C 88% Calm Calm 5.0 mph8.0 kmh 30.25 in1024.4 mb 0.00 in0.0 mm 0.00 in0.0 mm 0.00 in0.0 mm
03:55 AM 29.9°F-1.2°C 26.8°F-2.9°C 88% 2.0 mph ESE3.2 kmh ESE 5.0 mph8.0 kmh 30.25 in1024.4 mb 0.00 in0.0 mm 0.00 in0.0 mm 0.00 in0.0 mm
04:00 AM 29.9°F-1.2°C 26.8°F-2.9°C 88% 3.0 mph E4.8 kmh E 5.0 mph8.0 kmh 30.25 in1024.4 mb 0.00 in0.0 mm 0.00 in0.0 mm 0.00 in0.0 mm
04:05 AM 29.9°F-1.2°C 26.8°F-2.9°C 88% 1.0 mph E1.6 kmh E 4.0 mph6.4 kmh 30.25 in1024.4 mb 0.00 in0.0 mm 0.00 in0.0 mm 0.00 in0.0 mm
04:10 AM 29.8°F-1.2°C 27.0°F-2.8°C 89% 3.0 mph E4.8 kmh E 4.0 mph6.4 kmh 30.25 in1024.4 mb 0.00 in0.0 mm 0.00 in0.0 mm 0.00 in0.0 mm
04:15 AM 30.1°F-1.1°C 27.3°F-2.6°C 89% 3.0 mph SE4.8 kmh SE 4.0 mph6.4 kmh 30.25 in1024.4 mb 0.00 in0.0 mm 0.00 in0.0 mm 0.00 in0.0 mm
04:20 AM 30.3°F-0.9°C 27.5°F-2.5°C 89% 4.0 mph SE6.4 kmh SE 5.0 mph8.0 kmh 30.25 in1024.4 mb 0.00 in0.0 mm 0.00 in0.0 mm 0.00 in0.0 mm
04:25 AM 30.4°F-0.9°C 27.6°F-2.4°C 89% 3.0 mph ESE4.8 kmh ESE 5.0 mph8.0 kmh 30.26 in1024.7 mb 0.00 in0.0 mm 0.00 in0.0 mm 0.00 in0.0 mm
04:30 AM 30.5°F-0.8°C 27.4°F-2.6°C 88% 1.0 mph ESE1.6 kmh ESE 5.0 mph8.0 kmh 30.26 in1024.7 mb 0.00 in0.0 mm 0.00 in0.0 mm 0.00 in0.0 mm
04:35 AM 30.3°F-0.9°C 27.2°F-2.7°C 88% 3.0 mph ESE4.8 kmh ESE 5.0 mph8.0 kmh 30.26 in1024.7 mb 0.00 in0.0 mm 0.00 in0.0 mm 0.00 in0.0 mm
04:40 AM 30.1°F-1.1°C 27.0°F-2.8°C 88% 4.0 mph ESE6.4 kmh ESE 6.0 mph9.7 kmh 30.26 in1024.7 mb 0.00 in0.0 mm 0.00 in0.0 mm 0.00 in0.0 mm
04:45 AM 30.2°F-1.0°C 27.1°F-2.7°C 88% 2.0 mph ESE3.2 kmh ESE 6.0 mph9.7 kmh 30.26 in1024.7 mb 0.00 in0.0 mm 0.00 in0.0 mm 0.00 in0.0 mm
04:50 AM 30.2°F-1.0°C 27.1°F-2.7°C 88% 2.0 mph SE3.2 kmh SE 5.0 mph8.0 kmh 30.26 in1024.7 mb 0.00 in0.0 mm 0.00 in0.0 mm 0.00 in0.0 mm
04:55 AM 30.2°F-1.0°C 27.1°F-2.7°C 88% 2.0 mph E3.2 kmh E 5.0 mph8.0 kmh 30.26 in1024.7 mb 0.00 in0.0 mm 0.00 in0.0 mm 0.00 in0.0 mm
05:00 AM 30.3°F-0.9°C 27.2°F-2.7°C 88% 2.0 mph ESE3.2 kmh ESE 7.0 mph11.3 kmh 30.26 in1024.7 mb 0.00 in0.0 mm 0.00 in0.0 mm 0.00 in0.0 mm
05:05 AM 30.2°F-1.0°C 27.1°F-2.7°C 88% 3.0 mph ESE4.8 kmh ESE 5.0 mph8.0 kmh 30.26 in1024.7 mb 0.00 in0.0 mm 0.00 in0.0 mm 0.00 in0.0 mm
05:10 AM 30.2°F-1.0°C 27.1°F-2.7°C 88% 3.0 mph E4.8 kmh E 5.0 mph8.0 kmh 30.26 in1024.7 mb 0.00 in0.0 mm 0.00 in0.0 mm 0.00 in0.0 mm
05:15 AM 30.2°F-1.0°C 27.1°F-2.7°C 88% Calm Calm 5.0 mph8.0 kmh 30.26 in1024.7 mb 0.00 in0.0 mm 0.00 in0.0 mm 0.00 in0.0 mm
05:20 AM 30.1°F-1.1°C 27.0°F-2.8°C 88% 1.0 mph ESE1.6 kmh ESE 3.0 mph4.8 kmh 30.26 in1024.7 mb 0.00 in0.0 mm 0.00 in0.0 mm 0.00 in0.0 mm
05:25 AM 30.0°F-1.1°C 26.9°F-2.8°C 88% 2.0 mph SE3.2 kmh SE 4.0 mph6.4 kmh 30.26 in1024.7 mb 0.00 in0.0 mm 0.00 in0.0 mm 0.00 in0.0 mm
05:30 AM 29.9°F-1.2°C 26.8°F-2.9°C 88% 3.0 mph SE4.8 kmh SE 5.0 mph8.0 kmh 30.26 in1024.7 mb 0.00 in0.0 mm 0.00 in0.0 mm 0.00 in0.0 mm
05:35 AM 29.9°F-1.2°C 26.8°F-2.9°C 88% 3.0 mph ESE4.8 kmh ESE 5.0 mph8.0 kmh 30.26 in1024.7 mb 0.00 in0.0 mm 0.00 in0.0 mm 0.00 in0.0 mm
05:40 AM 29.8°F-1.2°C 26.7°F-2.9°C 88% 2.0 mph E3.2 kmh E 5.0 mph8.0 kmh 30.26 in1024.7 mb 0.00 in0.0 mm 0.00 in0.0 mm 0.00 in0.0 mm
05:45 AM 29.3°F-1.5°C 25.9°F-3.4°C 87% 2.0 mph E3.2 kmh E 5.0 mph8.0 kmh 30.26 in1024.7 mb 0.00 in0.0 mm 0.00 in0.0 mm 0.00 in0.0 mm
05:50 AM 28.9°F-1.7°C 25.8°F-3.4°C 88% 3.0 mph E4.8 kmh E 5.0 mph8.0 kmh 30.26 in1024.7 mb 0.00 in0.0 mm 0.00 in0.0 mm 0.00 in0.0 mm
05:55 AM 28.7°F-1.8°C 25.6°F-3.6°C 88% 3.0 mph E4.8 kmh E 5.0 mph8.0 kmh 30.26 in1024.7 mb 0.00 in0.0 mm 0.00 in0.0 mm 0.00 in0.0 mm
06:00 AM 28.5°F-1.9°C 25.4°F-3.7°C 88% 4.0 mph E6.4 kmh E 6.0 mph9.7 kmh 30.26 in1024.7 mb 0.00 in0.0 mm 0.00 in0.0 mm 0.00 in0.0 mm
06:05 AM 28.5°F-1.9°C 25.7°F-3.5°C 89% 2.0 mph E3.2 kmh E 5.0 mph8.0 kmh 30.26 in1024.7 mb 0.00 in0.0 mm 0.00 in0.0 mm 0.00 in0.0 mm
06:10 AM 28.6°F-1.9°C 25.8°F-3.4°C 89% 1.0 mph E1.6 kmh E 5.0 mph8.0 kmh 30.26 in1024.7 mb 0.00 in0.0 mm 0.00 in0.0 mm 0.00 in0.0 mm
06:15 AM 28.7°F-1.8°C 25.9°F-3.4°C 89% 3.0 mph E4.8 kmh E 6.0 mph9.7 kmh 30.26 in1024.7 mb 0.00 in0.0 mm 0.00 in0.0 mm 0.00 in0.0 mm
06:20 AM 28.7°F-1.8°C 25.9°F-3.4°C 89% 4.0 mph E6.4 kmh E 5.0 mph8.0 kmh 30.26 in1024.7 mb 0.00 in0.0 mm 0.00 in0.0 mm 0.00 in0.0 mm
06:25 AM 28.8°F-1.8°C 26.0°F-3.3°C 89% 6.0 mph E9.7 kmh E 7.0 mph11.3 kmh 30.26 in1024.7 mb 0.00 in0.0 mm 0.00 in0.0 mm 0.00 in0.0 mm
06:30 AM 28.9°F-1.7°C 26.1°F-3.3°C 89% 4.0 mph E6.4 kmh E 7.0 mph11.3 kmh 30.26 in1024.7 mb 0.00 in0.0 mm 0.00 in0.0 mm 0.00 in0.0 mm
06:35 AM 29.0°F-1.7°C 26.2°F-3.2°C 89% 5.0 mph E8.0 kmh E 7.0 mph11.3 kmh 30.26 in1024.7 mb 0.00 in0.0 mm 0.00 in0.0 mm 0.00 in0.0 mm
06:40 AM 29.1°F-1.6°C 26.3°F-3.2°C 89% 4.0 mph E6.4 kmh E 7.0 mph11.3 kmh 30.26 in1024.7 mb 0.00 in0.0 mm 0.00 in0.0 mm 0.00 in0.0 mm
06:45 AM 29.2°F-1.6°C 26.4°F-3.1°C 89% 3.0 mph E4.8 kmh E 7.0 mph11.3 kmh 30.27 in1025.1 mb 0.00 in0.0 mm 0.00 in0.0 mm 0.00 in0.0 mm
06:50 AM 29.1°F-1.6°C 26.3°F-3.2°C 89% 4.0 mph E6.4 kmh E 7.0 mph11.3 kmh 30.27 in1025.1 mb 0.00 in0.0 mm 0.00 in0.0 mm 0.00 in0.0 mm
06:55 AM 29.1°F-1.6°C 26.3°F-3.2°C 89% 3.0 mph E4.8 kmh E 7.0 mph11.3 kmh 30.27 in1025.1 mb 0.00 in0.0 mm 0.00 in0.0 mm 0.00 in0.0 mm
07:00 AM 29.0°F-1.7°C 26.2°F-3.2°C 89% 5.0 mph E8.0 kmh E 7.0 mph11.3 kmh 30.27 in1025.1 mb 0.00 in0.0 mm 0.00 in0.0 mm 0.00 in0.0 mm
07:05 AM 28.9°F-1.7°C 26.1°F-3.3°C 89% 7.0 mph E11.3 kmh E 7.0 mph11.3 kmh 30.27 in1025.1 mb 0.00 in0.0 mm 0.00 in0.0 mm 0.00 in0.0 mm
07:10 AM 28.9°F-1.7°C 26.1°F-3.3°C 89% 3.0 mph E4.8 kmh E 7.0 mph11.3 kmh 30.27 in1025.1 mb 0.00 in0.0 mm 0.00 in0.0 mm 0.00 in0.0 mm
07:15 AM 28.9°F-1.7°C 26.1°F-3.3°C 89% 5.0 mph E8.0 kmh E 9.0 mph14.5 kmh 30.27 in1025.1 mb 0.00 in0.0 mm 0.00 in0.0 mm 0.00 in0.0 mm
07:20 AM 28.9°F-1.7°C 26.1°F-3.3°C 89% 2.0 mph ESE3.2 kmh ESE 6.0 mph9.7 kmh 30.27 in1025.1 mb 0.00 in0.0 mm 0.00 in0.0 mm 0.00 in0.0 mm
07:25 AM 28.9°F-1.7°C 26.1°F-3.3°C 89% 5.0 mph E8.0 kmh E 7.0 mph11.3 kmh 30.27 in1025.1 mb 0.00 in0.0 mm 0.00 in0.0 mm 0.00 in0.0 mm
07:30 AM 28.9°F-1.7°C 26.1°F-3.3°C 89% 7.0 mph E11.3 kmh E 8.0 mph12.9 kmh 30.27 in1025.1 mb 0.00 in0.0 mm 0.00 in0.0 mm 0.00 in0.0 mm
07:35 AM 28.9°F-1.7°C 26.1°F-3.3°C 89% 3.0 mph ESE4.8 kmh ESE 7.0 mph11.3 kmh 30.27 in1025.1 mb 0.00 in0.0 mm 0.00 in0.0 mm 0.00 in0.0 mm
07:40 AM 29.0°F-1.7°C 25.9°F-3.4°C 88% 4.0 mph E6.4 kmh E 8.0 mph12.9 kmh 30.27 in1025.1 mb 0.00 in0.0 mm 0.00 in0.0 mm 0.00 in0.0 mm
07:45 AM 29.1°F-1.6°C 26.0°F-3.3°C 88% 1.0 mph E1.6 kmh E 8.0 mph12.9 kmh 30.27 in1025.1 mb 0.00 in0.0 mm 0.00 in0.0 mm 0.00 in0.0 mm
07:50 AM 29.4°F-1.4°C 26.6°F-3.0°C 89% 6.0 mph ESE9.7 kmh ESE 9.0 mph14.5 kmh 30.27 in1025.1 mb 0.00 in0.0 mm 0.00 in0.0 mm 0.00 in0.0 mm
07:55 AM 29.6°F-1.3°C 26.5°F-3.1°C 88% 2.0 mph ESE3.2 kmh ESE 9.0 mph14.5 kmh 30.27 in1025.1 mb 0.00 in0.0 mm 0.00 in0.0 mm 0.00 in0.0 mm
08:00 AM 29.7°F-1.3°C 26.6°F-3.0°C 88% 1.0 mph S1.6 kmh S 9.0 mph14.5 kmh 30.28 in1025.4 mb 0.00 in0.0 mm 0.00 in0.0 mm 0.00 in0.0 mm
08:05 AM 29.8°F-1.2°C 26.7°F-2.9°C 88% 3.0 mph SE4.8 kmh SE 9.0 mph14.5 kmh 30.28 in1025.4 mb 0.00 in0.0 mm 0.00 in0.0 mm 0.00 in0.0 mm
08:10 AM 29.8°F-1.2°C 26.7°F-2.9°C 88% 4.0 mph ESE6.4 kmh ESE 9.0 mph14.5 kmh 30.28 in1025.4 mb 0.00 in0.0 mm 0.00 in0.0 mm 0.00 in0.0 mm
08:15 AM 29.7°F-1.3°C 26.6°F-3.0°C 88% 3.0 mph SE4.8 kmh SE 12.0 mph19.3 kmh 30.28 in1025.4 mb 0.00 in0.0 mm 0.00 in0.0 mm 0.00 in0.0 mm
08:20 AM 29.7°F-1.3°C 26.6°F-3.0°C 88% 4.0 mph SE6.4 kmh SE 9.0 mph14.5 kmh 30.28 in1025.4 mb 0.00 in0.0 mm 0.00 in0.0 mm 0.00 in0.0 mm
08:25 AM 29.7°F-1.3°C 26.3°F-3.2°C 87% 3.0 mph ESE4.8 kmh ESE 10.0 mph16.1 kmh 30.28 in1025.4 mb 0.00 in0.0 mm 0.00 in0.0 mm 0.00 in0.0 mm
08:30 AM 29.6°F-1.3°C 26.2°F-3.2°C 87% 6.0 mph ESE9.7 kmh ESE 12.0 mph19.3 kmh 30.28 in1025.4 mb 0.00 in0.0 mm 0.00 in0.0 mm 0.00 in0.0 mm
08:35 AM 29.5°F-1.4°C 26.1°F-3.3°C 87% 6.0 mph SE9.7 kmh SE 12.0 mph19.3 kmh 30.28 in1025.4 mb 0.00 in0.0 mm 0.00 in0.0 mm 0.00 in0.0 mm
08:40 AM 29.6°F-1.3°C 26.5°F-3.1°C 88% 13.0 mph ESE20.9 kmh ESE 13.0 mph20.9 kmh 30.28 in1025.4 mb 0.00 in0.0 mm 0.00 in0.0 mm 0.00 in0.0 mm
08:45 AM 29.5°F-1.4°C 26.1°F-3.3°C 87% 10.0 mph E16.1 kmh E 13.0 mph20.9 kmh 30.28 in1025.4 mb 0.00 in0.0 mm 0.00 in0.0 mm 0.00 in0.0 mm
08:50 AM 29.5°F-1.4°C 26.4°F-3.1°C 88% 8.0 mph SE12.9 kmh SE 15.0 mph24.1 kmh 30.28 in1025.4 mb 0.00 in0.0 mm 0.00 in0.0 mm 0.00 in0.0 mm
08:55 AM 29.5°F-1.4°C 26.1°F-3.3°C 87% 6.0 mph SE9.7 kmh SE 15.0 mph24.1 kmh 30.29 in1025.7 mb 0.00 in0.0 mm 0.00 in0.0 mm 0.00 in0.0 mm
09:00 AM 29.4°F-1.4°C 26.0°F-3.3°C 87% 6.0 mph SE9.7 kmh SE 15.0 mph24.1 kmh 30.29 in1025.7 mb 0.00 in0.0 mm 0.00 in0.0 mm 0.00 in0.0 mm
09:05 AM 29.3°F-1.5°C 25.9°F-3.4°C 87% 4.0 mph SE6.4 kmh SE 13.0 mph20.9 kmh 30.29 in1025.7 mb 0.00 in0.0 mm 0.00 in0.0 mm 0.00 in0.0 mm
09:10 AM 29.4°F-1.4°C 26.3°F-3.2°C 88% 9.0 mph ESE14.5 kmh ESE 13.0 mph20.9 kmh 30.29 in1025.7 mb 0.00 in0.0 mm 0.00 in0.0 mm 0.00 in0.0 mm
09:15 AM 29.8°F-1.2°C 26.4°F-3.1°C 87% 3.0 mph ESE4.8 kmh ESE 13.0 mph20.9 kmh 30.29 in1025.7 mb 0.00 in0.0 mm 0.00 in0.0 mm 0.00 in0.0 mm
09:20 AM 30.2°F-1.0°C 26.8°F-2.9°C 87% 5.0 mph ESE8.0 kmh ESE 10.0 mph16.1 kmh 30.29 in1025.7 mb 0.00 in0.0 mm 0.00 in0.0 mm 0.00 in0.0 mm
09:25 AM 30.4°F-0.9°C 27.0°F-2.8°C 87% 11.0 mph SE17.7 kmh SE 13.0 mph20.9 kmh 30.30 in1026.1 mb 0.00 in0.0 mm 0.00 in0.0 mm 0.00 in0.0 mm
09:30 AM 30.6°F-0.8°C 27.2°F-2.7°C 87% 5.0 mph E8.0 kmh E 13.0 mph20.9 kmh 30.30 in1026.1 mb 0.00 in0.0 mm 0.00 in0.0 mm 0.00 in0.0 mm
09:35 AM 30.9°F-0.6°C 27.5°F-2.5°C 87% 3.0 mph E4.8 kmh E 11.0 mph17.7 kmh 30.30 in1026.1 mb 0.00 in0.0 mm 0.00 in0.0 mm 0.00 in0.0 mm
09:40 AM 31.2°F-0.4°C 27.5°F-2.5°C 86% 7.0 mph SE11.3 kmh SE 12.0 mph19.3 kmh 30.30 in1026.1 mb 0.00 in0.0 mm 0.00 in0.0 mm 0.00 in0.0 mm
09:45 AM 31.8°F-0.1°C 28.1°F-2.2°C 86% 5.0 mph ESE8.0 kmh ESE 12.0 mph19.3 kmh 30.30 in1026.1 mb 0.00 in0.0 mm 0.00 in0.0 mm 0.00 in0.0 mm
09:50 AM 32.1°F0.1°C 28.4°F-2.0°C 86% 10.0 mph E16.1 kmh E 11.0 mph17.7 kmh 30.30 in1026.1 mb 0.00 in0.0 mm 0.00 in0.0 mm 0.00 in0.0 mm
09:55 AM 32.3°F0.2°C 28.3°F-2.1°C 85% 9.0 mph ESE14.5 kmh ESE 11.0 mph17.7 kmh 30.30 in1026.1 mb 0.00 in0.0 mm 0.00 in0.0 mm 0.00 in0.0 mm
10:00 AM 32.4°F0.2°C 28.4°F-2.0°C 85% 9.0 mph ESE14.5 kmh ESE 13.0 mph20.9 kmh 30.30 in1026.1 mb 0.00 in0.0 mm 0.00 in0.0 mm 0.00 in0.0 mm
10:05 AM 32.7°F0.4°C 28.4°F-2.0°C 84% 5.0 mph ESE8.0 kmh ESE 13.0 mph20.9 kmh 30.31 in1026.4 mb 0.00 in0.0 mm 0.00 in0.0 mm 0.00 in0.0 mm
10:10 AM 32.8°F0.4°C 28.5°F-1.9°C 84% 7.0 mph E11.3 kmh E 13.0 mph20.9 kmh 30.31 in1026.4 mb 0.00 in0.0 mm 0.00 in0.0 mm 0.00 in0.0 mm
10:15 AM 32.9°F0.5°C 28.3°F-2.1°C 83% 10.0 mph E16.1 kmh E 13.0 mph20.9 kmh 30.31 in1026.4 mb 0.00 in0.0 mm 0.00 in0.0 mm 0.00 in0.0 mm
10:20 AM 32.9°F0.5°C 28.3°F-2.1°C 83% 5.0 mph E8.0 kmh E 9.0 mph14.5 kmh 30.31 in1026.4 mb 0.00 in0.0 mm 0.00 in0.0 mm 0.00 in0.0 mm
10:25 AM 32.9°F0.5°C 28.3°F-2.1°C 83% 5.0 mph E8.0 kmh E 9.0 mph14.5 kmh 30.32 in1026.8 mb 0.00 in0.0 mm 0.00 in0.0 mm 0.00 in0.0 mm
10:30 AM 32.9°F0.5°C 28.3°F-2.1°C 83% 10.0 mph E16.1 kmh E 11.0 mph17.7 kmh 30.32 in1026.8 mb 0.00 in0.0 mm 0.00 in0.0 mm 0.00 in0.0 mm
10:35 AM 33.1°F0.6°C 28.2°F-2.1°C 82% 6.0 mph ESE9.7 kmh ESE 12.0 mph19.3 kmh 30.32 in1026.8 mb 0.00 in0.0 mm 0.00 in0.0 mm 0.00 in0.0 mm
10:40 AM 33.3°F0.7°C 28.4°F-2.0°C 82% 4.0 mph E6.4 kmh E 12.0 mph19.3 kmh 30.32 in1026.8 mb 0.00 in0.0 mm 0.00 in0.0 mm 0.00 in0.0 mm
10:45 AM 33.4°F0.8°C 28.5°F-1.9°C 82% 3.0 mph E4.8 kmh E 13.0 mph20.9 kmh 30.32 in1026.8 mb 0.00 in0.0 mm 0.00 in0.0 mm 0.00 in0.0 mm
10:50 AM 33.6°F0.9°C 28.4°F-2.0°C 81% 5.0 mph E8.0 kmh E 15.0 mph24.1 kmh 30.32 in1026.8 mb 0.00 in0.0 mm 0.00 in0.0 mm 0.00 in0.0 mm
10:55 AM 33.6°F0.9°C 28.4°F-2.0°C 81% 6.0 mph SE9.7 kmh SE 15.0 mph24.1 kmh 30.32 in1026.8 mb 0.00 in0.0 mm 0.00 in0.0 mm 0.00 in0.0 mm
11:00 AM 33.8°F1.0°C 28.6°F-1.9°C 81% 5.0 mph E8.0 kmh E 15.0 mph24.1 kmh 30.32 in1026.8 mb 0.00 in0.0 mm 0.00 in0.0 mm 0.00 in0.0 mm
11:05 AM 34.1°F1.2°C 28.9°F-1.7°C 81% 10.0 mph SE16.1 kmh SE 18.0 mph29.0 kmh 30.32 in1026.8 mb 0.00 in0.0 mm 0.00 in0.0 mm 0.00 in0.0 mm
11:10 AM 34.4°F1.3°C 29.2°F-1.6°C 81% 12.0 mph SSE19.3 kmh SSE 18.0 mph29.0 kmh 30.32 in1026.8 mb 0.00 in0.0 mm 0.00 in0.0 mm 0.00 in0.0 mm
11:15 AM 34.8°F1.6°C 29.6°F-1.3°C 81% 9.0 mph SE14.5 kmh SE 18.0 mph29.0 kmh 30.32 in1026.8 mb 0.00 in0.0 mm 0.00 in0.0 mm 0.00 in0.0 mm
11:20 AM 35.3°F1.8°C 30.1°F-1.1°C 81% 5.0 mph SE8.0 kmh SE 13.0 mph20.9 kmh 30.32 in1026.8 mb 0.00 in0.0 mm 0.00 in0.0 mm 0.00 in0.0 mm
11:25 AM 35.5°F1.9°C 30.0°F-1.1°C 80% 7.0 mph ESE11.3 kmh ESE 14.0 mph22.5 kmh 30.33 in1027.1 mb 0.00 in0.0 mm 0.00 in0.0 mm 0.00 in0.0 mm
11:30 AM 35.5°F1.9°C 29.6°F-1.3°C 79% 11.0 mph SE17.7 kmh SE 15.0 mph24.1 kmh 30.33 in1027.1 mb 0.00 in0.0 mm 0.00 in0.0 mm 0.00 in0.0 mm
11:35 AM 35.4°F1.9°C 29.2°F-1.6°C 78% 7.0 mph SE11.3 kmh SE 16.0 mph25.7 kmh 30.28 in1025.4 mb 0.00 in0.0 mm 0.00 in0.0 mm 0.00 in0.0 mm
11:40 AM 35.6°F2.0°C 29.7°F-1.3°C 79% 13.0 mph SE20.9 kmh SE 16.0 mph25.7 kmh 30.28 in1025.4 mb 0.00 in0.0 mm 0.00 in0.0 mm 0.00 in0.0 mm
11:45 AM 35.8°F2.1°C 29.9°F-1.2°C 79% 5.0 mph ESE8.0 kmh ESE 16.0 mph25.7 kmh 30.29 in1025.7 mb 0.00 in0.0 mm 0.00 in0.0 mm 0.00 in0.0 mm
11:50 AM 36.0°F2.2°C 29.8°F-1.2°C 78% 2.0 mph E3.2 kmh E 14.0 mph22.5 kmh 30.29 in1025.7 mb 0.00 in0.0 mm 0.00 in0.0 mm 0.00 in0.0 mm
11:55 AM 36.1°F2.3°C 29.9°F-1.2°C 78% 6.0 mph SE9.7 kmh SE 16.0 mph25.7 kmh 30.29 in1025.7 mb 0.00 in0.0 mm 0.00 in0.0 mm 0.00 in0.0 mm
12:00 PM 36.5°F2.5°C 30.3°F-0.9°C 78% 8.0 mph SE12.9 kmh SE 16.0 mph25.7 kmh 30.29 in1025.7 mb 0.00 in0.0 mm 0.00 in0.0 mm 0.00 in0.0 mm
12:05 PM 36.8°F2.7°C 30.6°F-0.8°C 78% 10.0 mph SE16.1 kmh SE 17.0 mph27.4 kmh 30.29 in1025.7 mb 0.00 in0.0 mm 0.00 in0.0 mm 0.00 in0.0 mm
12:10 PM 36.8°F2.7°C 30.6°F-0.8°C 78% 3.0 mph SE4.8 kmh SE 17.0 mph27.4 kmh 30.29 in1025.7 mb 0.00 in0.0 mm 0.00 in0.0 mm 0.00 in0.0 mm
12:15 PM 37.0°F2.8°C 30.5°F-0.8°C 77% 9.0 mph SE14.5 kmh SE 18.0 mph29.0 kmh 30.29 in1025.7 mb 0.00 in0.0 mm 0.00 in0.0 mm 0.00 in0.0 mm
12:20 PM 36.8°F2.7°C 30.6°F-0.8°C 78% 3.0 mph ESE4.8 kmh ESE 16.0 mph25.7 kmh 30.29 in1025.7 mb 0.00 in0.0 mm 0.00 in0.0 mm 0.00 in0.0 mm
12:25 PM 37.6°F3.1°C 31.1°F-0.5°C 77% 8.0 mph SE12.9 kmh SE 16.0 mph25.7 kmh 30.29 in1025.7 mb 0.00 in0.0 mm 0.00 in0.0 mm 0.00 in0.0 mm
12:30 PM 37.6°F3.1°C 30.7°F-0.7°C 76% 12.0 mph SE19.3 kmh SE 16.0 mph25.7 kmh 30.29 in1025.7 mb 0.00 in0.0 mm 0.00 in0.0 mm 0.00 in0.0 mm
12:35 PM 37.8°F3.2°C 30.9°F-0.6°C 76% 17.0 mph SE27.4 kmh SE 17.0 mph27.4 kmh 30.28 in1025.4 mb 0.00 in0.0 mm 0.00 in0.0 mm 0.00 in0.0 mm
12:40 PM 37.7°F3.2°C 30.8°F-0.7°C 76% 13.0 mph SE20.9 kmh SE 17.0 mph27.4 kmh 30.28 in1025.4 mb 0.00 in0.0 mm 0.00 in0.0 mm 0.00 in0.0 mm
12:45 PM 37.6°F3.1°C 30.7°F-0.7°C 76% 13.0 mph ESE20.9 kmh ESE 17.0 mph27.4 kmh 30.28 in1025.4 mb 0.00 in0.0 mm 0.00 in0.0 mm 0.00 in0.0 mm
12:50 PM 38.1°F3.4°C 30.9°F-0.6°C 75% 9.0 mph SE14.5 kmh SE 13.0 mph20.9 kmh 30.28 in1025.4 mb 0.00 in0.0 mm 0.00 in0.0 mm 0.00 in0.0 mm
12:55 PM 38.0°F3.3°C 30.8°F-0.7°C 75% 10.0 mph SE16.1 kmh SE 19.0 mph30.6 kmh 30.27 in1025.1 mb 0.00 in0.0 mm 0.00 in0.0 mm 0.00 in0.0 mm
01:00 PM 38.2°F3.4°C 31.0°F-0.6°C 75% 10.0 mph SE16.1 kmh SE 19.0 mph30.6 kmh 30.27 in1025.1 mb 0.00 in0.0 mm 0.00 in0.0 mm 0.00 in0.0 mm
01:05 PM 38.6°F3.7°C 31.0°F-0.6°C 74% 7.0 mph SE11.3 kmh SE 14.0 mph22.5 kmh 30.27 in1025.1 mb 0.00 in0.0 mm 0.00 in0.0 mm 0.00 in0.0 mm
01:10 PM 38.6°F3.7°C 30.7°F-0.7°C 73% 8.0 mph ESE12.9 kmh ESE 15.0 mph24.1 kmh 30.27 in1025.1 mb 0.00 in0.0 mm 0.00 in0.0 mm 0.00 in0.0 mm
01:15 PM 38.6°F3.7°C 30.7°F-0.7°C 73% 6.0 mph SE9.7 kmh SE 15.0 mph24.1 kmh 30.26 in1024.7 mb 0.00 in0.0 mm 0.00 in0.0 mm 0.00 in0.0 mm
01:20 PM 38.5°F3.6°C 30.6°F-0.8°C 73% 7.0 mph SE11.3 kmh SE 15.0 mph24.1 kmh 30.26 in1024.7 mb 0.00 in0.0 mm 0.00 in0.0 mm 0.00 in0.0 mm
01:25 PM 38.4°F3.6°C 30.9°F-0.6°C 74% 11.0 mph SE17.7 kmh SE 15.0 mph24.1 kmh 30.26 in1024.7 mb 0.00 in0.0 mm 0.00 in0.0 mm 0.00 in0.0 mm
01:30 PM 38.4°F3.6°C 30.9°F-0.6°C 74% 7.0 mph SE11.3 kmh SE 15.0 mph24.1 kmh 30.26 in1024.7 mb 0.00 in0.0 mm 0.00 in0.0 mm 0.00 in0.0 mm
01:35 PM 39.0°F3.9°C 31.4°F-0.3°C 74% 9.0 mph SE14.5 kmh SE 14.0 mph22.5 kmh 30.26 in1024.7 mb 0.00 in0.0 mm 0.00 in0.0 mm 0.00 in0.0 mm
01:45 PM 39.1°F3.9°C 31.2°F-0.4°C 73% 7.0 mph SSE11.3 kmh SSE 12.0 mph19.3 kmh 30.25 in1024.4 mb 0.00 in0.0 mm 0.00 in0.0 mm 0.00 in0.0 mm
01:50 PM 38.9°F3.8°C 31.0°F-0.6°C 73% 11.0 mph SE17.7 kmh SE 14.0 mph22.5 kmh 30.25 in1024.4 mb 0.00 in0.0 mm 0.00 in0.0 mm 0.00 in0.0 mm
01:55 PM 39.0°F3.9°C 31.1°F-0.5°C 73% 8.0 mph SE12.9 kmh SE 14.0 mph22.5 kmh 30.25 in1024.4 mb 0.00 in0.0 mm 0.00 in0.0 mm 0.00 in0.0 mm
02:00 PM 39.0°F3.9°C 31.1°F-0.5°C 73% 11.0 mph SE17.7 kmh SE 15.0 mph24.1 kmh 30.24 in1024.0 mb 0.00 in0.0 mm 0.00 in0.0 mm 0.00 in0.0 mm
02:05 PM 39.1°F3.9°C 31.2°F-0.4°C 73% 5.0 mph SE8.0 kmh SE 12.0 mph19.3 kmh 30.24 in1024.0 mb 0.00 in0.0 mm 0.00 in0.0 mm 0.00 in0.0 mm
02:10 PM 39.2°F4.0°C 30.6°F-0.8°C 71% 9.0 mph S14.5 kmh S 14.0 mph22.5 kmh 30.24 in1024.0 mb 0.00 in0.0 mm 0.00 in0.0 mm 0.00 in0.0 mm
02:15 PM 39.3°F4.1°C 31.0°F-0.6°C 72% 7.0 mph SE11.3 kmh SE 14.0 mph22.5 kmh 30.24 in1024.0 mb 0.00 in0.0 mm 0.00 in0.0 mm 0.00 in0.0 mm
02:20 PM 39.7°F4.3°C 31.4°F-0.3°C 72% 10.0 mph SE16.1 kmh SE 11.0 mph17.7 kmh 30.24 in1024.0 mb 0.00 in0.0 mm 0.00 in0.0 mm 0.00 in0.0 mm
02:25 PM 39.5°F4.2°C 30.5°F-0.8°C 70% 8.0 mph E12.9 kmh E 12.0 mph19.3 kmh 30.24 in1024.0 mb 0.00 in0.0 mm 0.00 in0.0 mm 0.00 in0.0 mm
02:30 PM 40.1°F4.5°C 31.8°F-0.1°C 72% 4.0 mph SE6.4 kmh SE 12.0 mph19.3 kmh 30.23 in1023.7 mb 0.00 in0.0 mm 0.00 in0.0 mm 0.00 in0.0 mm
02:35 PM 40.2°F4.6°C 30.9°F-0.6°C 69% 5.0 mph ESE8.0 kmh ESE 9.0 mph14.5 kmh 30.23 in1023.7 mb 0.00 in0.0 mm 0.00 in0.0 mm 0.00 in0.0 mm
02:40 PM 40.8°F4.9°C 31.4°F-0.3°C 69% 11.0 mph SE17.7 kmh SE 11.0 mph17.7 kmh 30.23 in1023.7 mb 0.00 in0.0 mm 0.00 in0.0 mm 0.00 in0.0 mm
02:45 PM 39.9°F4.4°C 30.6°F-0.8°C 69% 3.0 mph ESE4.8 kmh ESE 12.0 mph19.3 kmh 30.23 in1023.7 mb 0.00 in0.0 mm 0.00 in0.0 mm 0.00 in0.0 mm
02:50 PM 40.6°F4.8°C 31.6°F-0.2°C 70% 7.0 mph E11.3 kmh E 10.0 mph16.1 kmh 30.23 in1023.7 mb 0.00 in0.0 mm 0.00 in0.0 mm 0.00 in0.0 mm
02:55 PM 41.2°F5.1°C 31.1°F-0.5°C 67% 2.0 mph SE3.2 kmh SE 10.0 mph16.1 kmh 30.23 in1023.7 mb 0.00 in0.0 mm 0.00 in0.0 mm 0.00 in0.0 mm
03:00 PM 41.5°F5.3°C 31.4°F-0.3°C 67% 6.0 mph SE9.7 kmh SE 11.0 mph17.7 kmh 30.23 in1023.7 mb 0.00 in0.0 mm 0.00 in0.0 mm 0.00 in0.0 mm
03:05 PM 40.4°F4.7°C 30.7°F-0.7°C 68% 3.0 mph E4.8 kmh E 11.0 mph17.7 kmh 30.23 in1023.7 mb 0.00 in0.0 mm 0.00 in0.0 mm 0.00 in0.0 mm
03:10 PM 40.1°F4.5°C 30.8°F-0.7°C 69% 5.0 mph SE8.0 kmh SE 11.0 mph17.7 kmh 30.23 in1023.7 mb 0.00 in0.0 mm 0.00 in0.0 mm 0.00 in0.0 mm
03:15 PM 40.8°F4.9°C 30.7°F-0.7°C 67% 6.0 mph SE9.7 kmh SE 11.0 mph17.7 kmh 30.22 in1023.4 mb 0.00 in0.0 mm 0.00 in0.0 mm 0.00 in0.0 mm
03:20 PM 40.5°F4.7°C 30.4°F-0.9°C 67% 6.0 mph ESE9.7 kmh ESE 10.0 mph16.1 kmh 30.22 in1023.4 mb 0.00 in0.0 mm 0.00 in0.0 mm 0.00 in0.0 mm
03:25 PM 41.0°F5.0°C 31.3°F-0.4°C 68% 7.0 mph SE11.3 kmh SE 10.0 mph16.1 kmh 30.23 in1023.7 mb 0.00 in0.0 mm 0.00 in0.0 mm 0.00 in0.0 mm
03:30 PM 41.9°F5.5°C 31.4°F-0.3°C 66% 6.0 mph ESE9.7 kmh ESE 14.0 mph22.5 kmh 30.22 in1023.4 mb 0.00 in0.0 mm 0.00 in0.0 mm 0.00 in0.0 mm
03:35 PM 41.9°F5.5°C 31.8°F-0.1°C 67% 3.0 mph ESE4.8 kmh ESE 10.0 mph16.1 kmh 30.22 in1023.4 mb 0.00 in0.0 mm 0.00 in0.0 mm 0.00 in0.0 mm
03:40 PM 42.2°F5.7°C 30.9°F-0.6°C 64% 3.0 mph E4.8 kmh E 13.0 mph20.9 kmh 30.22 in1023.4 mb 0.00 in0.0 mm 0.00 in0.0 mm 0.00 in0.0 mm
03:45 PM 42.3°F5.7°C 30.6°F-0.8°C 63% 4.0 mph E6.4 kmh E 13.0 mph20.9 kmh 30.23 in1023.7 mb 0.00 in0.0 mm 0.00 in0.0 mm 0.00 in0.0 mm
03:50 PM 42.1°F5.6°C 30.4°F-0.9°C 63% Calm Calm 8.0 mph12.9 kmh 30.23 in1023.7 mb 0.00 in0.0 mm 0.00 in0.0 mm 0.00 in0.0 mm
03:55 PM 42.1°F5.6°C 30.4°F-0.9°C 63% 5.0 mph E8.0 kmh E 10.0 mph16.1 kmh 30.23 in1023.7 mb 0.00 in0.0 mm 0.00 in0.0 mm 0.00 in0.0 mm
04:00 PM 42.0°F5.6°C 30.3°F-0.9°C 63% 3.0 mph SE4.8 kmh SE 10.0 mph16.1 kmh 30.23 in1023.7 mb 0.00 in0.0 mm 0.00 in0.0 mm 0.00 in0.0 mm
04:05 PM 42.0°F5.6°C 31.1°F-0.5°C 65% 3.0 mph E4.8 kmh E 6.0 mph9.7 kmh 30.23 in1023.7 mb 0.00 in0.0 mm 0.00 in0.0 mm 0.00 in0.0 mm
04:10 PM 42.0°F5.6°C 30.3°F-0.9°C 63% 2.0 mph SE3.2 kmh SE 7.0 mph11.3 kmh 30.23 in1023.7 mb 0.00 in0.0 mm 0.00 in0.0 mm 0.00 in0.0 mm
04:15 PM 41.4°F5.2°C 31.3°F-0.4°C 67% Calm Calm 7.0 mph11.3 kmh 30.24 in1024.0 mb 0.00 in0.0 mm 0.00 in0.0 mm 0.00 in0.0 mm
04:35 PM 41.3°F5.2°C 31.2°F-0.4°C 67% 3.0 mph SSE4.8 kmh SSE 7.0 mph11.3 kmh 30.24 in1024.0 mb 0.00 in0.0 mm 0.00 in0.0 mm 0.00 in0.0 mm
04:45 PM 41.5°F5.3°C 32.1°F0.1°C 69% 2.0 mph SE3.2 kmh SE 7.0 mph11.3 kmh 30.24 in1024.0 mb 0.00 in0.0 mm 0.00 in0.0 mm 0.00 in0.0 mm
04:50 PM 41.7°F5.4°C 31.9°F-0.1°C 68% 3.0 mph SE4.8 kmh SE 8.0 mph12.9 kmh 30.23 in1023.7 mb 0.00 in0.0 mm 0.00 in0.0 mm 0.00 in0.0 mm
04:55 PM 41.4°F5.2°C 31.7°F-0.2°C 68% 4.0 mph SE6.4 kmh SE 8.0 mph12.9 kmh 30.23 in1023.7 mb 0.00 in0.0 mm 0.00 in0.0 mm 0.00 in0.0 mm
05:00 PM 41.4°F5.2°C 31.7°F-0.2°C 68% 1.0 mph SE1.6 kmh SE 9.0 mph14.5 kmh 30.23 in1023.7 mb 0.00 in0.0 mm 0.00 in0.0 mm 0.00 in0.0 mm
05:10 PM 41.5°F5.3°C 32.1°F0.1°C 69% 4.0 mph S6.4 kmh S 7.0 mph11.3 kmh 30.23 in1023.7 mb 0.00 in0.0 mm 0.00 in0.0 mm 0.00 in0.0 mm
05:15 PM 41.3°F5.2°C 31.9°F-0.1°C 69% 3.0 mph S4.8 kmh S 7.0 mph11.3 kmh 30.23 in1023.7 mb 0.00 in0.0 mm 0.00 in0.0 mm 0.00 in0.0 mm
05:20 PM 40.9°F4.9°C 31.5°F-0.3°C 69% 4.0 mph SSE6.4 kmh SSE 8.0 mph12.9 kmh 30.24 in1024.0 mb 0.00 in0.0 mm 0.00 in0.0 mm 0.00 in0.0 mm
05:25 PM 40.7°F4.8°C 31.7°F-0.2°C 70% 3.0 mph S4.8 kmh S 8.0 mph12.9 kmh 30.24 in1024.0 mb 0.00 in0.0 mm 0.00 in0.0 mm 0.00 in0.0 mm
05:30 PM 40.7°F4.8°C 31.3°F-0.4°C 69% 3.0 mph S4.8 kmh S 8.0 mph12.9 kmh 30.24 in1024.0 mb 0.00 in0.0 mm 0.00 in0.0 mm 0.00 in0.0 mm
05:35 PM 40.5°F4.7°C 31.1°F-0.5°C 69% 2.0 mph S3.2 kmh S 6.0 mph9.7 kmh 30.24 in1024.0 mb 0.00 in0.0 mm 0.00 in0.0 mm 0.00 in0.0 mm
05:40 PM 40.4°F4.7°C 31.4°F-0.3°C 70% 6.0 mph S9.7 kmh S 6.0 mph9.7 kmh 30.24 in1024.0 mb 0.00 in0.0 mm 0.00 in0.0 mm 0.00 in0.0 mm
05:45 PM 40.3°F4.6°C 31.3°F-0.4°C 70% 2.0 mph SSE3.2 kmh SSE 7.0 mph11.3 kmh 30.24 in1024.0 mb 0.00 in0.0 mm 0.00 in0.0 mm 0.00 in0.0 mm
05:50 PM 40.1°F4.5°C 31.1°F-0.5°C 70% 3.0 mph S4.8 kmh S 6.0 mph9.7 kmh 30.24 in1024.0 mb 0.00 in0.0 mm 0.00 in0.0 mm 0.00 in0.0 mm
05:55 PM 39.9°F4.4°C 30.9°F-0.6°C 70% 5.0 mph S8.0 kmh S 6.0 mph9.7 kmh 30.24 in1024.0 mb 0.00 in0.0 mm 0.00 in0.0 mm 0.00 in0.0 mm
06:00 PM 39.7°F4.3°C 30.7°F-0.7°C 70% 2.0 mph S3.2 kmh S 6.0 mph9.7 kmh 30.24 in1024.0 mb 0.00 in0.0 mm 0.00 in0.0 mm 0.00 in0.0 mm
06:05 PM 39.4°F4.1°C 30.8°F-0.7°C 71% 2.0 mph S3.2 kmh S 2.0 mph3.2 kmh 30.24 in1024.0 mb 0.00 in0.0 mm 0.00 in0.0 mm 0.00 in0.0 mm
06:10 PM 39.1°F3.9°C 30.9°F-0.6°C 72% 2.0 mph S3.2 kmh S 2.0 mph3.2 kmh 30.24 in1024.0 mb 0.00 in0.0 mm 0.00 in0.0 mm 0.00 in0.0 mm
06:15 PM 38.8°F3.8°C 30.6°F-0.8°C 72% Calm Calm 2.0 mph3.2 kmh 30.24 in1024.0 mb 0.00 in0.0 mm 0.00 in0.0 mm 0.00 in0.0 mm
06:20 PM 38.3°F3.5°C 30.4°F-0.9°C 73% 1.0 mph S1.6 kmh S 2.0 mph3.2 kmh 30.24 in1024.0 mb 0.00 in0.0 mm 0.00 in0.0 mm 0.00 in0.0 mm
06:25 PM 37.7°F3.2°C 30.2°F-1.0°C 74% Calm Calm 2.0 mph3.2 kmh 30.24 in1024.0 mb 0.00 in0.0 mm 0.00 in0.0 mm 0.00 in0.0 mm
06:30 PM 37.2°F2.9°C 30.0°F-1.1°C 75% Calm Calm 2.0 mph3.2 kmh 30.24 in1024.0 mb 0.00 in0.0 mm 0.00 in0.0 mm 0.00 in0.0 mm
06:35 PM 36.6°F2.6°C 29.4°F-1.4°C 75% Calm Calm 1.0 mph1.6 kmh 30.24 in1024.0 mb 0.00 in0.0 mm 0.00 in0.0 mm 0.00 in0.0 mm
06:40 PM 36.2°F2.3°C 29.4°F-1.4°C 76% 3.0 mph WNW4.8 kmh WNW 3.0 mph4.8 kmh 30.25 in1024.4 mb 0.00 in0.0 mm 0.00 in0.0 mm 0.00 in0.0 mm
06:45 PM 36.1°F2.3°C 29.6°F-1.3°C 77% 2.0 mph NW3.2 kmh NW 4.0 mph6.4 kmh 30.25 in1024.4 mb 0.00 in0.0 mm 0.00 in0.0 mm 0.00 in0.0 mm
06:50 PM 35.9°F2.2°C 29.1°F-1.6°C 76% Calm Calm -- 30.25 in1024.4 mb 0.00 in0.0 mm 0.00 in0.0 mm 0.00 in0.0 mm
06:55 PM 35.0°F1.7°C 28.2°F-2.1°C 76% Calm Calm -- 30.25 in1024.4 mb 0.00 in0.0 mm 0.00 in0.0 mm 0.00 in0.0 mm
07:05 PM 34.2°F1.2°C 27.8°F-2.3°C 77% Calm Calm 4.0 mph6.4 kmh 30.25 in1024.4 mb 0.00 in0.0 mm 0.00 in0.0 mm 0.00 in0.0 mm
07:10 PM 33.6°F0.9°C 27.5°F-2.5°C 78% Calm Calm 4.0 mph6.4 kmh 30.25 in1024.4 mb 0.00 in0.0 mm 0.00 in0.0 mm 0.00 in0.0 mm
07:15 PM 33.4°F0.8°C 27.9°F-2.3°C 80% 2.0 mph NW3.2 kmh NW 4.0 mph6.4 kmh 30.25 in1024.4 mb 0.00 in0.0 mm 0.00 in0.0 mm 0.00 in0.0 mm
07:20 PM 32.8°F0.4°C 27.3°F-2.6°C 80% Calm Calm 3.0 mph4.8 kmh 30.25 in1024.4 mb 0.00 in0.0 mm 0.00 in0.0 mm 0.00 in0.0 mm
07:25 PM 33.0°F0.6°C 27.8°F-2.3°C 81% Calm Calm 3.0 mph4.8 kmh 30.25 in1024.4 mb 0.00 in0.0 mm 0.00 in0.0 mm 0.00 in0.0 mm
07:30 PM 32.5°F0.3°C 27.0°F-2.8°C 80% Calm Calm 3.0 mph4.8 kmh 30.25 in1024.4 mb 0.00 in0.0 mm 0.00 in0.0 mm 0.00 in0.0 mm
07:35 PM 32.4°F0.2°C 27.2°F-2.7°C 81% Calm Calm -- 30.25 in1024.4 mb 0.00 in0.0 mm 0.00 in0.0 mm 0.00 in0.0 mm
07:40 PM 32.1°F0.1°C 26.9°F-2.8°C 81% Calm Calm -- 30.25 in1024.4 mb 0.00 in0.0 mm 0.00 in0.0 mm 0.00 in0.0 mm
07:45 PM 31.7°F-0.2°C 26.8°F-2.9°C 82% Calm Calm 1.0 mph1.6 kmh 30.25 in1024.4 mb 0.00 in0.0 mm 0.00 in0.0 mm 0.00 in0.0 mm
07:50 PM 31.8°F-0.1°C 27.2°F-2.7°C 83% 4.0 mph NNE6.4 kmh NNE 5.0 mph8.0 kmh 30.25 in1024.4 mb 0.00 in0.0 mm 0.00 in0.0 mm 0.00 in0.0 mm
07:55 PM 31.8°F-0.1°C 27.2°F-2.7°C 83% 2.0 mph NNE3.2 kmh NNE 5.0 mph8.0 kmh 30.25 in1024.4 mb 0.00 in0.0 mm 0.00 in0.0 mm 0.00 in0.0 mm
08:00 PM 31.5°F-0.3°C 26.9°F-2.8°C 83% 4.0 mph NNE6.4 kmh NNE 5.0 mph8.0 kmh 30.25 in1024.4 mb 0.00 in0.0 mm 0.00 in0.0 mm 0.00 in0.0 mm
08:05 PM 31.9°F-0.1°C 27.6°F-2.4°C 84% 2.0 mph NNE3.2 kmh NNE 4.0 mph6.4 kmh 30.25 in1024.4 mb 0.00 in0.0 mm 0.00 in0.0 mm 0.00 in0.0 mm
08:10 PM 31.7°F-0.2°C 27.1°F-2.7°C 83% Calm Calm 4.0 mph6.4 kmh 30.25 in1024.4 mb 0.00 in0.0 mm 0.00 in0.0 mm 0.00 in0.0 mm
08:15 PM 31.4°F-0.3°C 26.8°F-2.9°C 83% Calm Calm 4.0 mph6.4 kmh 30.25 in1024.4 mb 0.00 in0.0 mm 0.00 in0.0 mm 0.00 in0.0 mm
08:20 PM 30.7°F-0.7°C 26.5°F-3.1°C 84% 2.0 mph NNE3.2 kmh NNE 2.0 mph3.2 kmh 30.25 in1024.4 mb 0.00 in0.0 mm 0.00 in0.0 mm 0.00 in0.0 mm
08:30 PM 30.2°F-1.0°C 26.2°F-3.2°C 85% Calm Calm 3.0 mph4.8 kmh 30.25 in1024.4 mb 0.00 in0.0 mm 0.00 in0.0 mm 0.00 in0.0 mm
08:50 PM 30.2°F-1.0°C 26.8°F-2.9°C 87% Calm Calm -- 30.25 in1024.4 mb 0.00 in0.0 mm 0.00 in0.0 mm 0.00 in0.0 mm
09:00 PM 29.6°F-1.3°C 26.2°F-3.2°C 87% Calm Calm -- 30.25 in1024.4 mb 0.00 in0.0 mm 0.00 in0.0 mm 0.00 in0.0 mm
09:10 PM 29.3°F-1.5°C 25.9°F-3.4°C 87% Calm Calm -- 30.25 in1024.4 mb 0.00 in0.0 mm 0.00 in0.0 mm 0.00 in0.0 mm
09:15 PM 29.2°F-1.6°C 26.1°F-3.3°C 88% Calm Calm -- 30.25 in1024.4 mb 0.00 in0.0 mm 0.00 in0.0 mm 0.00 in0.0 mm
09:20 PM 29.5°F-1.4°C 26.4°F-3.1°C 88% Calm Calm -- 30.25 in1024.4 mb 0.00 in0.0 mm 0.00 in0.0 mm 0.00 in0.0 mm
09:25 PM 29.5°F-1.4°C 26.4°F-3.1°C 88% Calm Calm -- 30.25 in1024.4 mb 0.00 in0.0 mm 0.00 in0.0 mm 0.00 in0.0 mm
09:30 PM 29.0°F-1.7°C 25.9°F-3.4°C 88% Calm Calm -- 30.25 in1024.4 mb 0.00 in0.0 mm 0.00 in0.0 mm 0.00 in0.0 mm
09:35 PM 28.5°F-1.9°C 25.4°F-3.7°C 88% Calm Calm -- 30.25 in1024.4 mb 0.00 in0.0 mm 0.00 in0.0 mm 0.00 in0.0 mm
09:40 PM 28.0°F-2.2°C 24.9°F-3.9°C 88% Calm Calm -- 30.25 in1024.4 mb 0.00 in0.0 mm 0.00 in0.0 mm 0.00 in0.0 mm
09:50 PM 27.9°F-2.3°C 25.1°F-3.8°C 89% Calm Calm -- 30.25 in1024.4 mb 0.00 in0.0 mm 0.00 in0.0 mm 0.00 in0.0 mm
09:55 PM 28.0°F-2.2°C 25.2°F-3.8°C 89% Calm Calm -- 30.25 in1024.4 mb 0.00 in0.0 mm 0.00 in0.0 mm 0.00 in0.0 mm
10:20 PM 28.8°F-1.8°C 26.2°F-3.2°C 90% 1.0 mph NNE1.6 kmh NNE 2.0 mph3.2 kmh 30.26 in1024.7 mb 0.00 in0.0 mm 0.00 in0.0 mm 0.00 in0.0 mm
10:25 PM 29.0°F-1.7°C 26.4°F-3.1°C 90% 3.0 mph NNE4.8 kmh NNE 3.0 mph4.8 kmh 30.26 in1024.7 mb 0.00 in0.0 mm 0.00 in0.0 mm 0.00 in0.0 mm
10:35 PM 28.4°F-2.0°C 25.6°F-3.6°C 89% Calm Calm 2.0 mph3.2 kmh 30.27 in1025.1 mb 0.00 in0.0 mm 0.00 in0.0 mm 0.00 in0.0 mm
10:40 PM 27.9°F-2.3°C 24.8°F-4.0°C 88% 2.0 mph NE3.2 kmh NE 3.0 mph4.8 kmh 30.27 in1025.1 mb 0.00 in0.0 mm 0.00 in0.0 mm 0.00 in0.0 mm
10:50 PM 27.0°F-2.8°C 24.2°F-4.3°C 89% Calm Calm 2.0 mph3.2 kmh 30.27 in1025.1 mb 0.00 in0.0 mm 0.00 in0.0 mm 0.00 in0.0 mm
11:00 PM 26.6°F-3.0°C 23.8°F-4.6°C 89% Calm Calm 2.0 mph3.2 kmh 30.27 in1025.1 mb 0.00 in0.0 mm 0.00 in0.0 mm 0.00 in0.0 mm
11:05 PM 26.5°F-3.1°C 24.0°F-4.4°C 90% Calm Calm 2.0 mph3.2 kmh 30.27 in1025.1 mb 0.00 in0.0 mm 0.00 in0.0 mm 0.00 in0.0 mm
11:15 PM 26.7°F-2.9°C 24.2°F-4.3°C 90% 1.0 mph NE1.6 kmh NE 4.0 mph6.4 kmh 30.27 in1025.1 mb 0.00 in0.0 mm 0.00 in0.0 mm 0.00 in0.0 mm
11:25 PM 27.2°F-2.7°C 24.7°F-4.1°C 90% Calm Calm 2.0 mph3.2 kmh 30.27 in1025.1 mb 0.00 in0.0 mm 0.00 in0.0 mm 0.00 in0.0 mm
11:40 PM 26.9°F-2.8°C 24.4°F-4.2°C 90% Calm Calm -- 30.27 in1025.1 mb 0.00 in0.0 mm 0.00 in0.0 mm 0.00 in0.0 mm
11:50 PM 27.0°F-2.8°C 24.7°F-4.1°C 91% Calm Calm -- 30.28 in1025.4 mb 0.00 in0.0 mm 0.00 in0.0 mm 0.00 in0.0 mm